createdAt,value
2023-03-27T00:02:04.938Z,99579.22
2023-03-27T00:04:31.673Z,99583.13
2023-03-27T00:06:59.512Z,99591.38
2023-03-27T00:09:27.839Z,99595.72
2023-03-27T00:11:56.142Z,99606.72
2023-03-27T00:14:23.890Z,99596.38
2023-03-27T00:16:51.159Z,99614.16
2023-03-27T00:19:18.977Z,99623.88
2023-03-27T00:21:45.649Z,99629.38
2023-03-27T00:24:12.297Z,99632.81
2023-03-27T00:26:40.435Z,99643.56
2023-03-27T00:29:07.688Z,99651.13
2023-03-27T00:31:34.255Z,99638.91
2023-03-27T00:34:01.367Z,99640.22
2023-03-27T00:36:27.976Z,99678.63
2023-03-27T00:38:54.760Z,99683.78
2023-03-27T00:41:21.824Z,99688.97
2023-03-27T00:43:49.404Z,99688.03
2023-03-27T00:46:16.111Z,99691.56
2023-03-27T00:48:43.357Z,99686.41
2023-03-27T00:51:10.129Z,99701.56
2023-03-27T00:53:37.152Z,99707.72
2023-03-27T00:56:04.886Z,99705.19
2023-03-27T00:58:41.430Z,99717.91
2023-03-27T01:01:08.072Z,99721.03
2023-03-27T01:03:34.674Z,99735.56
2023-03-27T01:06:01.913Z,99728.78
2023-03-27T01:08:29.877Z,99740.59
2023-03-27T01:11:24.697Z,99735.75
2023-03-27T01:14:01.696Z,99750.59
2023-03-27T01:16:40.324Z,99754.34
2023-03-27T01:19:53.309Z,99756.94
2023-03-27T01:22:57.367Z,99761.31
2023-03-27T01:25:46.465Z,99771.84
2023-03-27T01:28:19.517Z,99776.81
2023-03-27T01:31:13.498Z,99781.50
2023-03-27T01:34:00.558Z,99784.94
2023-03-27T01:37:06.406Z,99800.28
2023-03-27T01:39:43.068Z,99797.06
2023-03-27T01:42:20.891Z,99804.31
2023-03-27T01:45:08.663Z,99805.13
2023-03-27T01:47:51.640Z,99786.09
2023-03-27T01:50:37.972Z,99785.00
2023-03-27T01:53:12.287Z,99811.81
2023-03-27T01:55:40.009Z,99817.31
2023-03-27T01:58:38.108Z,99835.22
2023-03-27T02:01:05.558Z,99845.09
2023-03-27T02:03:52.037Z,99836.56
2023-03-27T02:06:49.293Z,99852.72
2023-03-27T02:09:18.752Z,99853.50
2023-03-27T02:11:48.868Z,99874.06
2023-03-27T02:14:18.269Z,99885.38
2023-03-27T02:16:46.680Z,99889.91
2023-03-27T02:19:19.711Z,99899.28
2023-03-27T02:21:48.043Z,99915.44
2023-03-27T02:24:17.765Z,99908.34
2023-03-27T02:26:45.118Z,99911.91
2023-03-27T02:29:29.051Z,99923.88
2023-03-27T02:32:05.920Z,99930.84
2023-03-27T02:34:59.325Z,99939.38
2023-03-27T02:37:50.604Z,99937.44
2023-03-27T02:40:57.883Z,99950.69
2023-03-27T02:43:52.652Z,99949.44
2023-03-27T02:46:43.478Z,99967.88
2023-03-27T02:49:14.416Z,99965.44
2023-03-27T02:51:43.351Z,99986.31
2023-03-27T02:54:13.050Z,99988.41
2023-03-27T02:56:46.186Z,100002.81
2023-03-27T02:59:24.799Z,100016.06
2023-03-27T03:01:51.434Z,100014.13
2023-03-27T03:04:28.581Z,100009.94
2023-03-27T03:07:16.118Z,100016.69
2023-03-27T03:09:44.538Z,100026.88
2023-03-27T03:12:11.115Z,100033.19
2023-03-27T03:14:40.989Z,100039.50
2023-03-27T03:17:08.412Z,100045.81
2023-03-27T03:19:34.996Z,100061.63
2023-03-27T03:22:01.804Z,100059.38
2023-03-27T03:24:29.950Z,100076.69
2023-03-27T03:26:57.353Z,100080.56
2023-03-27T03:29:29.865Z,100090.75
2023-03-27T03:32:06.770Z,100092.38
2023-03-27T03:34:34.463Z,100095.13
2023-03-27T03:37:01.100Z,100103.53
2023-03-27T03:39:30.995Z,100118.25
2023-03-27T03:41:57.654Z,100123.59
2023-03-27T03:44:24.564Z,100120.03
2023-03-27T03:46:51.224Z,100142.03
2023-03-27T03:49:21.042Z,100146.72
2023-03-27T03:51:47.876Z,100147.34
2023-03-27T03:54:30.593Z,100162.56
2023-03-27T03:56:57.250Z,100158.50
2023-03-27T03:59:24.117Z,100169.69
2023-03-27T04:02:28.535Z,100167.09
2023-03-27T04:05:00.794Z,100183.41
2023-03-27T04:07:35.667Z,100197.81
2023-03-27T04:10:22.496Z,100203.63
2023-03-27T04:12:49.505Z,100202.38
2023-03-27T04:15:27.337Z,100203.63
2023-03-27T04:18:20.174Z,100209.53
2023-03-27T04:20:50.588Z,100224.38
2023-03-27T04:23:19.486Z,100228.28
2023-03-27T04:25:48.877Z,100231.97
2023-03-27T04:28:22.637Z,100208.00
2023-03-27T04:30:59.352Z,100261.88
2023-03-27T04:33:59.881Z,100267.53
2023-03-27T04:36:44.938Z,100268.47
2023-03-27T04:39:16.522Z,100269.78
2023-03-27T04:41:48.748Z,100249.88
2023-03-27T04:44:18.417Z,100282.25
2023-03-27T04:46:52.200Z,100291.78
2023-03-27T04:49:20.203Z,100293.09
2023-03-27T04:51:56.046Z,100293.00
2023-03-27T04:54:23.403Z,100312.25
2023-03-27T04:56:50.907Z,100296.78
2023-03-27T04:59:17.615Z,100317.25
2023-03-27T05:01:51.780Z,100310.50
2023-03-27T05:04:33.953Z,100319.06
2023-03-27T05:07:12.217Z,100356.97
2023-03-27T05:09:38.994Z,100344.66
2023-03-27T05:12:06.914Z,100362.47
2023-03-27T05:14:39.513Z,100371.09
2023-03-27T05:17:12.984Z,100388.03
2023-03-27T05:19:43.536Z,100381.25
2023-03-27T05:22:10.173Z,100388.38
2023-03-27T05:24:46.726Z,100397.31
2023-03-27T05:27:13.319Z,100412.75
2023-03-27T05:29:47.409Z,100409.59
2023-03-27T05:32:16.076Z,100417.28
2023-03-27T05:34:54.497Z,100427.84
2023-03-27T05:37:22.254Z,100421.97
2023-03-27T05:40:09.511Z,100434.81
2023-03-27T05:42:42.135Z,100436.41
2023-03-27T05:45:09.541Z,100439.28
2023-03-27T05:47:53.082Z,100445.47
2023-03-27T05:50:22.748Z,100454.00
2023-03-27T05:52:55.776Z,100466.00
2023-03-27T05:55:27.980Z,100464.38
2023-03-27T05:57:55.859Z,100476.81
2023-03-27T06:00:25.763Z,100479.09
2023-03-27T06:02:55.008Z,100483.59
2023-03-27T06:05:22.780Z,100493.97
2023-03-27T06:07:50.981Z,100497.84
2023-03-27T06:10:18.311Z,100505.81
2023-03-27T06:13:04.963Z,100513.38
2023-03-27T06:15:41.150Z,100517.72
2023-03-27T06:18:37.319Z,100506.00
2023-03-27T06:21:04.312Z,100523.69
2023-03-27T06:23:31.882Z,100531.28
2023-03-27T06:25:59.250Z,100541.94
2023-03-27T06:28:28.536Z,100516.28
2023-03-27T06:30:56.009Z,100549.59
2023-03-27T06:33:25.976Z,100543.56
2023-03-27T06:35:53.695Z,100558.31
2023-03-27T06:38:31.215Z,100550.00
2023-03-27T06:40:59.701Z,100573.88
2023-03-27T06:43:40.717Z,100561.28
2023-03-27T06:46:14.474Z,100581.63
2023-03-27T06:49:10.388Z,100585.50
2023-03-27T06:51:37.419Z,100582.06
2023-03-27T06:54:04.590Z,100587.94
2023-03-27T06:56:32.636Z,100599.88
2023-03-27T06:59:15.225Z,100603.25
2023-03-27T07:01:43.895Z,100602.53
2023-03-27T07:04:23.768Z,100612.38
2023-03-27T07:06:57.817Z,100629.25
2023-03-27T07:09:30.364Z,100613.00
2023-03-27T07:12:02.133Z,100643.63
2023-03-27T07:14:29.934Z,100641.13
2023-03-27T07:16:57.000Z,100649.91
2023-03-27T07:19:27.734Z,100654.09
2023-03-27T07:22:03.289Z,100651.13
2023-03-27T07:24:32.637Z,100663.94
2023-03-27T07:26:59.301Z,100663.75
2023-03-27T07:29:33.312Z,100671.91
2023-03-27T07:32:04.343Z,100676.78
2023-03-27T07:34:48.226Z,100673.53
2023-03-27T07:37:33.370Z,100677.78
2023-03-27T07:40:29.507Z,100688.88
2023-03-27T07:43:39.044Z,100693.53
2023-03-27T07:46:06.712Z,100699.66
2023-03-27T07:48:35.845Z,100712.69
2023-03-27T07:51:13.296Z,100704.88
2023-03-27T07:53:41.419Z,100712.16
2023-03-27T07:56:20.635Z,100728.88
2023-03-27T07:58:47.858Z,100719.53
2023-03-27T08:01:19.511Z,100720.56
2023-03-27T08:03:48.567Z,100725.03
2023-03-27T08:06:16.435Z,100727.97
2023-03-27T08:08:43.047Z,100732.38
2023-03-27T08:11:23.223Z,100722.41
2023-03-27T08:13:54.389Z,100740.31
2023-03-27T08:16:21.506Z,100739.81
2023-03-27T08:18:49.712Z,100758.84
2023-03-27T08:21:16.923Z,100758.84
2023-03-27T08:23:45.585Z,100765.34
2023-03-27T08:26:47.405Z,100761.06
2023-03-27T08:29:14.051Z,100767.81
2023-03-27T08:31:46.012Z,100757.56
2023-03-27T08:34:14.759Z,100769.25
2023-03-27T08:36:45.062Z,100769.66
2023-03-27T08:39:12.872Z,100776.28
2023-03-27T08:41:52.517Z,100773.16
2023-03-27T08:44:25.996Z,100783.75
2023-03-27T08:47:01.008Z,100781.31
2023-03-27T08:49:32.116Z,100795.25
2023-03-27T08:52:19.524Z,100775.56
2023-03-27T08:54:58.280Z,100793.47
2023-03-27T08:57:34.439Z,100774.88
2023-03-27T09:00:22.602Z,100799.22
2023-03-27T09:03:05.296Z,100795.25
2023-03-27T09:05:44.126Z,100805.94
2023-03-27T09:08:17.034Z,100793.31
2023-03-27T09:10:43.462Z,100806.31
2023-03-27T09:13:51.797Z,100798.19
2023-03-27T09:16:31.144Z,100815.63
2023-03-27T09:19:24.790Z,100814.41
2023-03-27T09:22:05.851Z,100815.03
2023-03-27T09:24:50.346Z,100819.59
2023-03-27T09:27:43.015Z,100805.56
2023-03-27T09:30:42.251Z,100817.75
2023-03-27T09:33:17.653Z,100810.63
2023-03-27T09:35:46.401Z,100812.44
2023-03-27T09:38:21.946Z,100813.91
2023-03-27T09:40:56.242Z,100824.44
2023-03-27T09:43:44.733Z,100813.44
2023-03-27T09:46:12.302Z,100814.47
2023-03-27T09:48:47.169Z,100813.25
2023-03-27T09:51:38.564Z,100816.38
2023-03-27T09:54:08.418Z,100818.94
2023-03-27T09:56:39.132Z,100818.94
2023-03-27T09:59:20.179Z,100812.59
2023-03-27T10:01:48.404Z,100820.38
2023-03-27T10:04:19.314Z,100820.75
2023-03-27T10:06:52.112Z,100827.25
2023-03-27T10:09:35.247Z,100820.63
2023-03-27T10:12:07.835Z,100838.66
2023-03-27T10:14:44.883Z,100828.97
2023-03-27T10:17:28.819Z,100822.34
2023-03-27T10:20:15.596Z,100829.69
2023-03-27T10:22:54.567Z,100833.16
2023-03-27T10:25:41.981Z,100851.50
2023-03-27T10:28:38.928Z,100818.09
2023-03-27T10:31:34.818Z,100829.09
2023-03-27T10:34:08.193Z,100826.53
2023-03-27T10:37:20.515Z,100836.22
2023-03-27T10:39:51.470Z,100837.03
2023-03-27T10:42:28.492Z,100823.78
2023-03-27T10:44:56.537Z,100834.34
2023-03-27T10:47:29.621Z,100814.88
2023-03-27T10:50:26.519Z,100841.22
2023-03-27T10:53:11.951Z,100842.66
2023-03-27T10:56:02.251Z,100836.97
2023-03-27T10:58:42.632Z,100850.00
2023-03-27T11:01:32.507Z,100842.41
2023-03-27T11:04:05.629Z,100852.69
2023-03-27T11:06:43.905Z,100852.38
2023-03-27T11:09:26.115Z,100840.63
2023-03-27T11:12:04.798Z,100848.88
2023-03-27T11:14:44.800Z,100846.22
2023-03-27T11:17:16.949Z,100850.75
2023-03-27T11:20:44.301Z,100856.00
2023-03-27T11:23:39.087Z,100865.88
2023-03-27T11:26:36.052Z,100861.19
2023-03-27T11:29:35.859Z,100861.25
2023-03-27T11:32:11.344Z,100861.56
2023-03-27T11:35:02.709Z,100859.94
2023-03-27T11:37:54.401Z,100869.13
2023-03-27T11:40:28.448Z,100871.13
2023-03-27T11:42:59.380Z,100873.78
2023-03-27T11:45:28.027Z,100859.91
2023-03-27T11:48:12.651Z,100874.88
2023-03-27T11:50:59.449Z,100882.09
2023-03-27T11:53:44.419Z,100896.78
2023-03-27T11:56:20.304Z,100902.28
2023-03-27T11:59:10.962Z,100914.31
2023-03-27T12:01:54.507Z,100923.28
2023-03-27T12:04:41.326Z,100925.00
2023-03-27T12:07:36.384Z,100948.75
2023-03-27T12:10:12.045Z,100950.50
2023-03-27T12:13:38.526Z,100952.53
2023-03-27T12:16:26.424Z,100957.03
2023-03-27T12:19:04.209Z,100963.66
2023-03-27T12:21:58.533Z,100940.41
2023-03-27T12:24:59.396Z,100927.44
2023-03-27T12:28:02.945Z,100914.00
2023-03-27T12:31:04.638Z,100910.78
2023-03-27T12:33:50.044Z,100923.50
2023-03-27T12:36:19.581Z,100928.88
2023-03-27T12:38:47.678Z,100923.28
2023-03-27T12:41:21.792Z,100929.19
2023-03-27T12:44:00.314Z,100921.84
2023-03-27T12:46:39.244Z,100927.75
2023-03-27T12:49:06.582Z,100926.69
2023-03-27T12:51:39.916Z,100924.63
2023-03-27T12:54:27.479Z,100909.03
2023-03-27T12:57:14.343Z,100930.06
2023-03-27T12:59:59.073Z,100929.00
2023-03-27T13:02:47.461Z,100926.56
2023-03-27T13:05:48.220Z,100927.00
2023-03-27T13:08:43.649Z,100924.88
2023-03-27T13:11:35.890Z,100906.66
2023-03-27T13:14:30.629Z,100931.13
2023-03-27T13:17:15.459Z,100934.00
2023-03-27T13:20:07.909Z,100944.03
2023-03-27T13:23:01.032Z,100962.59
2023-03-27T13:25:58.238Z,100991.47
2023-03-27T13:28:37.259Z,101007.47
2023-03-27T13:31:11.326Z,100990.03
2023-03-27T13:34:26.578Z,100989.94
2023-03-27T13:37:26.007Z,100970.78
2023-03-27T13:40:36.736Z,100953.25
2023-03-27T13:43:28.334Z,100950.06
2023-03-27T13:46:16.301Z,100952.44
2023-03-27T13:49:21.124Z,100946.50
2023-03-27T13:52:35.691Z,100942.38
2023-03-27T13:55:16.982Z,100947.47
2023-03-27T13:58:13.408Z,100953.88
2023-03-27T14:00:55.566Z,100955.19
2023-03-27T14:03:58.095Z,100958.19
2023-03-27T14:07:06.498Z,100958.69
2023-03-27T14:09:59.344Z,100958.84
2023-03-27T14:12:42.131Z,100950.44
2023-03-27T14:15:58.122Z,100956.34
2023-03-27T14:19:02.034Z,100945.06
2023-03-27T14:21:38.378Z,100945.06
2023-03-27T14:24:17.801Z,100948.69
2023-03-27T14:26:49.436Z,100950.50
2023-03-27T14:29:21.172Z,100950.69
2023-03-27T14:31:50.698Z,100941.50
2023-03-27T14:34:47.333Z,100944.53
2023-03-27T14:37:39.043Z,100942.56
2023-03-27T14:40:23.280Z,100942.94
2023-03-27T14:42:54.885Z,100944.06
2023-03-27T14:45:27.491Z,100933.34
2023-03-27T14:47:59.630Z,100950.25
2023-03-27T14:50:31.287Z,100936.16
2023-03-27T14:52:58.149Z,100949.31
2023-03-27T14:55:34.438Z,100948.28
2023-03-27T14:58:19.887Z,100952.69
2023-03-27T15:00:57.912Z,100954.75
2023-03-27T15:03:30.078Z,100949.56
2023-03-27T15:06:16.887Z,100938.94
2023-03-27T15:08:55.693Z,100960.97
2023-03-27T15:11:49.652Z,100964.06
2023-03-27T15:14:27.883Z,100977.66
2023-03-27T15:17:20.790Z,100985.75
2023-03-27T15:19:53.270Z,100986.97
2023-03-27T15:22:23.163Z,100972.47
2023-03-27T15:24:56.835Z,100979.59
2023-03-27T15:27:34.652Z,100983.91
2023-03-27T15:30:07.984Z,100987.19
2023-03-27T15:32:42.540Z,100976.56
2023-03-27T15:35:15.400Z,100979.31
2023-03-27T15:37:42.944Z,100980.94
2023-03-27T15:40:15.499Z,100988.91
2023-03-27T15:42:47.688Z,100976.56
2023-03-27T15:45:16.876Z,100965.84
2023-03-27T15:47:43.674Z,100964.72
2023-03-27T15:50:19.448Z,100959.50
2023-03-27T15:52:50.402Z,100972.88
2023-03-27T15:55:37.468Z,100975.34
2023-03-27T15:58:25.638Z,100984.91
2023-03-27T16:01:01.396Z,100979.91
2023-03-27T16:03:31.079Z,100971.84
2023-03-27T16:05:58.348Z,100977.78
2023-03-27T16:08:36.498Z,100982.66
2023-03-27T16:11:04.256Z,100974.72
2023-03-27T16:13:35.548Z,100970.63
2023-03-27T16:16:23.830Z,100973.41
2023-03-27T16:18:51.259Z,100976.44
2023-03-27T16:21:20.875Z,100968.78
2023-03-27T16:23:47.530Z,100980.84
2023-03-27T16:26:16.285Z,100970.94
2023-03-27T16:28:42.889Z,100977.38
2023-03-27T16:31:14.462Z,100980.75
2023-03-27T16:33:45.263Z,100970.97
2023-03-27T16:36:12.712Z,100988.50
2023-03-27T16:38:40.824Z,100986.19
2023-03-27T16:41:11.950Z,100988.50
2023-03-27T16:43:38.628Z,100987.19
2023-03-27T16:46:06.224Z,100990.88
2023-03-27T16:48:32.895Z,100994.25
2023-03-27T16:50:59.571Z,101001.50
2023-03-27T16:53:26.233Z,101001.84
2023-03-27T16:55:55.805Z,101009.91
2023-03-27T16:58:22.694Z,101011.53
2023-03-27T17:00:49.426Z,101028.69
2023-03-27T17:03:16.709Z,101038.69
2023-03-27T17:05:44.129Z,101055.00
2023-03-27T17:08:12.919Z,101060.31
2023-03-27T17:10:39.527Z,101044.59
2023-03-27T17:13:06.575Z,101040.69
2023-03-27T17:15:36.345Z,101039.88
2023-03-27T17:18:03.011Z,101034.19
2023-03-27T17:20:29.836Z,101035.56
2023-03-27T17:22:56.532Z,101044.56
2023-03-27T17:25:23.480Z,101040.09
2023-03-27T17:27:50.501Z,101052.31
2023-03-27T17:30:30.436Z,101053.75
2023-03-27T17:33:01.932Z,101051.31
2023-03-27T17:35:28.904Z,101069.06
2023-03-27T17:37:55.761Z,101064.19
2023-03-27T17:40:23.095Z,101092.97
2023-03-27T17:42:52.342Z,101097.25
2023-03-27T17:45:19.494Z,101086.03
2023-03-27T17:47:46.179Z,101092.88
2023-03-27T17:50:12.913Z,101087.97
2023-03-27T17:52:39.580Z,101094.59
2023-03-27T17:55:06.549Z,101095.72
2023-03-27T17:57:33.186Z,101112.56
2023-03-27T17:59:59.936Z,101115.63
2023-03-27T18:02:29.535Z,101119.47
2023-03-27T18:04:56.225Z,101134.78
2023-03-27T18:07:23.162Z,101125.72
2023-03-27T18:09:49.972Z,101135.38
2023-03-27T18:12:19.088Z,101146.00
2023-03-27T18:14:46.542Z,101140.59
2023-03-27T18:17:15.781Z,101149.06
2023-03-27T18:19:42.428Z,101169.16
2023-03-27T18:22:10.397Z,101174.75
2023-03-27T18:24:40.535Z,101181.59
2023-03-27T18:27:07.171Z,101177.59
2023-03-27T18:29:34.415Z,101190.25
2023-03-27T18:32:01.077Z,101184.94
2023-03-27T18:34:30.935Z,101186.50
2023-03-27T18:36:57.633Z,101187.91
2023-03-27T18:39:24.315Z,101187.09
2023-03-27T18:41:51.433Z,101193.00
2023-03-27T18:44:18.486Z,101206.78
2023-03-27T18:46:45.167Z,101203.50
2023-03-27T18:49:23.485Z,101205.16
2023-03-27T18:51:51.305Z,101201.78
2023-03-27T18:54:21.220Z,101204.75
2023-03-27T18:56:48.729Z,101204.00
2023-03-27T18:59:15.634Z,101201.53
2023-03-27T19:01:42.306Z,101212.84
2023-03-27T19:04:13.603Z,101206.31
2023-03-27T19:06:42.192Z,101211.28
2023-03-27T19:09:09.079Z,101221.22
2023-03-27T19:11:37.013Z,101230.56
2023-03-27T19:14:06.383Z,101241.06
2023-03-27T19:16:39.584Z,101234.84
2023-03-27T19:19:33.633Z,101242.22
2023-03-27T19:22:29.870Z,101246.88
2023-03-27T19:25:04.585Z,101235.66
2023-03-27T19:27:38.906Z,101233.09
2023-03-27T19:30:07.401Z,101211.81
2023-03-27T19:32:34.239Z,101216.31
2023-03-27T19:35:01.871Z,101214.97
2023-03-27T19:37:29.710Z,101198.84
2023-03-27T19:39:56.466Z,101218.34
2023-03-27T19:42:23.141Z,101228.25
2023-03-27T19:44:49.785Z,101231.91
2023-03-27T19:47:16.574Z,101232.72
2023-03-27T19:49:43.308Z,101242.03
2023-03-27T19:52:27.784Z,101243.13
2023-03-27T19:54:55.012Z,101248.75
2023-03-27T19:57:25.137Z,101254.25
2023-03-27T19:59:52.002Z,101260.78
2023-03-27T20:02:18.802Z,101255.06
2023-03-27T20:04:48.765Z,101256.25
2023-03-27T20:07:15.489Z,101262.78
2023-03-27T20:09:42.400Z,101262.56
2023-03-27T20:12:11.277Z,101264.22
2023-03-27T20:14:37.971Z,101270.84
2023-03-27T20:17:07.993Z,101272.78
2023-03-27T20:19:46.218Z,101275.41
2023-03-27T20:22:12.993Z,101274.78
2023-03-27T20:24:40.296Z,101265.59
2023-03-27T20:27:08.260Z,101277.03
2023-03-27T20:29:37.311Z,101280.53
2023-03-27T20:32:04.333Z,101280.28
2023-03-27T20:34:35.798Z,101265.59
2023-03-27T20:37:14.718Z,101284.47
2023-03-27T20:40:07.001Z,101289.06
2023-03-27T20:42:39.105Z,101280.06
2023-03-27T20:45:11.942Z,101292.34
2023-03-27T20:47:43.016Z,101288.84
2023-03-27T20:50:10.703Z,101294.66
2023-03-27T20:52:37.795Z,101275.56
2023-03-27T20:55:04.922Z,101295.16
2023-03-27T20:57:31.718Z,101284.53
2023-03-27T21:00:01.023Z,101268.78
2023-03-27T21:02:27.799Z,101291.38
2023-03-27T21:04:57.489Z,101291.06
2023-03-27T21:07:24.104Z,101289.22
2023-03-27T21:09:52.869Z,101297.44
2023-03-27T21:12:22.238Z,101300.69
2023-03-27T21:14:51.584Z,101295.78
2023-03-27T21:17:18.185Z,101305.00
2023-03-27T21:19:44.879Z,101305.00
2023-03-27T21:22:11.556Z,101302.41
2023-03-27T21:24:39.700Z,101310.41
2023-03-27T21:27:06.347Z,101303.59
2023-03-27T21:29:32.916Z,101307.66
2023-03-27T21:32:02.595Z,101307.66
2023-03-27T21:34:29.250Z,101314.72
2023-03-27T21:36:56.094Z,101319.72
2023-03-27T21:39:22.759Z,101318.91
2023-03-27T21:41:49.500Z,101316.75
2023-03-27T21:44:17.915Z,101321.50
2023-03-27T21:46:44.672Z,101300.91
2023-03-27T21:49:13.982Z,101313.78
2023-03-27T21:51:40.716Z,101313.84
2023-03-27T21:54:07.261Z,101316.06
2023-03-27T21:56:33.959Z,101315.03
2023-03-27T21:59:03.402Z,101326.13
2023-03-27T22:01:30.128Z,101325.59
2023-03-27T22:04:01.848Z,101331.69
2023-03-27T22:06:28.958Z,101317.50
2023-03-27T22:08:56.053Z,101326.28
2023-03-27T22:11:22.718Z,101340.09
2023-03-27T22:13:49.306Z,101340.91
2023-03-27T22:16:17.208Z,101340.78
2023-03-27T22:18:43.860Z,101340.69
2023-03-27T22:21:20.095Z,101343.97
2023-03-27T22:23:46.893Z,101353.41
2023-03-27T22:26:13.526Z,101359.94
2023-03-27T22:28:40.176Z,101352.50
2023-03-27T22:31:07.502Z,101365.53
2023-03-27T22:33:34.346Z,101359.00
2023-03-27T22:36:01.177Z,101362.84
2023-03-27T22:38:32.027Z,101359.03
2023-03-27T22:40:59.533Z,101374.44
2023-03-27T22:43:28.182Z,101372.25
2023-03-27T22:45:54.976Z,101372.34
2023-03-27T22:48:21.625Z,101377.84
2023-03-27T22:50:55.347Z,101374.59
2023-03-27T22:53:22.288Z,101391.34
2023-03-27T22:55:49.780Z,101396.03
2023-03-27T22:58:16.908Z,101396.28
2023-03-27T23:00:45.792Z,101400.41
2023-03-27T23:03:12.747Z,101403.97
2023-03-27T23:05:42.676Z,101404.28
2023-03-27T23:08:09.245Z,101405.66
2023-03-27T23:10:36.039Z,101411.41
2023-03-27T23:13:02.636Z,101412.53
2023-03-27T23:15:30.176Z,101410.84
2023-03-27T23:17:57.104Z,101426.31
2023-03-27T23:20:23.816Z,101415.38
2023-03-27T23:22:50.550Z,101425.47
2023-03-27T23:25:17.127Z,101416.44
2023-03-27T23:27:44.058Z,101426.28
2023-03-27T23:30:10.957Z,101424.63
2023-03-27T23:32:37.916Z,101426.28
2023-03-27T23:35:05.885Z,101426.28
2023-03-27T23:37:32.440Z,101429.59
2023-03-27T23:39:58.958Z,101434.56
2023-03-27T23:42:25.655Z,101435.16
2023-03-27T23:44:52.183Z,101425.50
2023-03-27T23:47:18.773Z,101435.03
2023-03-27T23:49:45.445Z,101442.22
2023-03-27T23:52:12.018Z,101441.41
2023-03-27T23:54:38.559Z,101442.88
2023-03-27T23:57:05.215Z,101447.81
2023-03-27T23:59:37.622Z,101444.50
